createdAt,value
2018-12-01T00:01:06.298Z,6.70
2018-12-01T00:04:10.413Z,6.70
2018-12-01T00:07:14.533Z,6.50
2018-12-01T00:10:18.749Z,6.50
2018-12-01T00:13:22.957Z,6.50
2018-12-01T00:16:27.061Z,6.40
2018-12-01T00:19:31.303Z,6.30
2018-12-01T00:22:35.411Z,6.30
2018-12-01T00:25:39.548Z,6.20
2018-12-01T00:28:43.642Z,6.10
2018-12-01T00:31:47.873Z,6.00
2018-12-01T00:34:51.989Z,5.80
2018-12-01T00:37:56.105Z,5.70
2018-12-01T00:41:00.215Z,5.70
2018-12-01T00:44:04.363Z,5.50
2018-12-01T00:47:08.473Z,5.50
2018-12-01T00:50:14.877Z,5.40
2018-12-01T00:53:19.000Z,5.40
2018-12-01T00:56:23.121Z,5.30
2018-12-01T00:59:27.260Z,5.30
2018-12-01T01:02:33.244Z,5.30
2018-12-01T01:05:37.445Z,5.30
2018-12-01T01:08:41.628Z,5.30
2018-12-01T01:11:45.784Z,5.40
2018-12-01T01:14:49.902Z,5.50
2018-12-01T01:17:54.018Z,5.50
2018-12-01T01:20:58.122Z,5.60
2018-12-01T01:24:02.228Z,5.60
2018-12-01T01:27:07.433Z,5.60
2018-12-01T01:30:22.113Z,5.60
2018-12-01T01:33:29.945Z,5.70
2018-12-01T01:36:34.068Z,5.70
2018-12-01T01:39:38.201Z,5.70
2018-12-01T01:42:42.414Z,5.70
2018-12-01T01:45:46.540Z,5.70
2018-12-01T01:48:50.661Z,5.70
2018-12-01T01:51:54.863Z,5.70
2018-12-01T01:54:58.992Z,5.70
2018-12-01T01:58:03.126Z,5.70
2018-12-01T02:01:07.314Z,5.70
2018-12-01T02:04:11.534Z,5.70
2018-12-01T02:07:15.673Z,5.70
2018-12-01T02:10:21.056Z,5.70
2018-12-01T02:13:25.210Z,5.70
2018-12-01T02:16:29.434Z,5.70
2018-12-01T02:19:33.569Z,5.80
2018-12-01T02:22:37.830Z,5.80
2018-12-01T02:25:41.988Z,5.80
2018-12-01T02:28:46.103Z,5.80
2018-12-01T02:31:50.218Z,5.70
2018-12-01T02:34:54.336Z,5.70
2018-12-01T02:37:58.534Z,5.80
2018-12-01T02:41:02.653Z,5.80
2018-12-01T02:44:23.898Z,5.80
2018-12-01T02:47:28.103Z,5.80
2018-12-01T02:50:32.212Z,5.80
2018-12-01T02:53:37.197Z,5.70
2018-12-01T02:56:41.377Z,5.70
2018-12-01T02:59:45.578Z,5.70
2018-12-01T03:02:49.681Z,5.70
2018-12-01T03:05:53.809Z,5.70
2018-12-01T03:08:57.924Z,5.80
2018-12-01T03:12:02.168Z,5.80
2018-12-01T03:15:08.775Z,5.70
2018-12-01T03:18:13.724Z,5.70
2018-12-01T03:21:17.080Z,5.60
2018-12-01T03:24:21.207Z,5.50
2018-12-01T03:27:25.322Z,5.40
2018-12-01T03:30:29.523Z,5.30
2018-12-01T03:33:33.648Z,5.30
2018-12-01T03:36:37.794Z,5.20
2018-12-01T03:39:41.973Z,5.20
2018-12-01T03:42:46.150Z,5.10
2018-12-01T03:45:50.295Z,5.10
2018-12-01T03:48:54.528Z,5.10
2018-12-01T03:51:58.666Z,5.20
2018-12-01T03:55:02.865Z,5.30
2018-12-01T03:58:07.082Z,5.40
2018-12-01T04:01:11.216Z,5.50
2018-12-01T04:04:15.417Z,5.50
2018-12-01T04:07:19.560Z,5.60
2018-12-01T04:10:23.720Z,5.60
2018-12-01T04:13:27.872Z,5.70
2018-12-01T04:16:32.088Z,5.70
2018-12-01T04:19:36.203Z,5.60
2018-12-01T04:22:40.353Z,5.50
2018-12-01T04:25:44.538Z,5.50
2018-12-01T04:28:48.669Z,5.50
2018-12-01T04:31:52.824Z,5.40
2018-12-01T04:34:56.989Z,5.50
2018-12-01T04:38:01.210Z,5.40
2018-12-01T04:41:05.630Z,5.40
2018-12-01T04:44:09.774Z,5.30
2018-12-01T04:47:13.968Z,5.40
2018-12-01T04:50:19.006Z,5.20
2018-12-01T04:53:23.222Z,5.20
2018-12-01T04:56:27.354Z,5.20
2018-12-01T04:59:31.484Z,5.10
2018-12-01T05:02:35.674Z,5.10
2018-12-01T05:05:39.855Z,5.10
2018-12-01T05:08:44.009Z,5.10
2018-12-01T05:11:48.233Z,5.10
2018-12-01T05:14:52.366Z,5.10
2018-12-01T05:17:56.564Z,5.00
2018-12-01T05:21:00.689Z,5.10
2018-12-01T05:24:04.899Z,5.20
2018-12-01T05:27:09.029Z,5.20
2018-12-01T05:30:13.235Z,5.20
2018-12-01T05:33:17.353Z,5.20
2018-12-01T05:36:21.464Z,5.20
2018-12-01T05:39:25.684Z,5.00
2018-12-01T05:42:29.801Z,5.00
2018-12-01T05:45:33.924Z,5.00
2018-12-01T05:48:38.045Z,4.90
2018-12-01T05:51:42.204Z,4.70
2018-12-01T05:54:46.302Z,4.60
2018-12-01T05:57:50.477Z,4.50
2018-12-01T06:00:54.569Z,4.50
2018-12-01T06:03:58.719Z,4.40
2018-12-01T06:07:02.921Z,4.30
2018-12-01T06:10:15.654Z,4.30
2018-12-01T06:13:19.769Z,4.30
2018-12-01T06:16:23.881Z,4.30
2018-12-01T06:19:27.992Z,4.20
2018-12-01T06:22:32.203Z,4.10
2018-12-01T06:25:36.300Z,4.10
2018-12-01T06:28:40.866Z,4.00
2018-12-01T06:31:44.980Z,3.90
2018-12-01T06:34:49.100Z,3.90
2018-12-01T06:37:53.232Z,3.80
2018-12-01T06:40:57.434Z,3.80
2018-12-01T06:44:01.636Z,3.80
2018-12-01T06:47:06.032Z,3.80
2018-12-01T06:50:12.751Z,3.80
2018-12-01T06:53:16.854Z,3.70
2018-12-01T06:56:20.956Z,3.80
2018-12-01T06:59:25.084Z,3.80
2018-12-01T07:02:29.303Z,3.90
2018-12-01T07:05:33.405Z,3.90
2018-12-01T07:08:37.521Z,3.90
2018-12-01T07:11:41.666Z,4.00
2018-12-01T07:14:45.796Z,4.00
2018-12-01T07:17:49.911Z,4.00
2018-12-01T07:20:54.024Z,4.00
2018-12-01T07:23:58.156Z,4.00
2018-12-01T07:27:02.288Z,4.00
2018-12-01T07:30:11.738Z,4.00
2018-12-01T07:33:15.885Z,4.00
2018-12-01T07:36:20.029Z,3.90
2018-12-01T07:39:27.220Z,3.90
2018-12-01T07:42:31.434Z,3.90
2018-12-01T07:45:35.560Z,4.00
2018-12-01T07:48:39.727Z,4.10
2018-12-01T07:51:43.848Z,4.20
2018-12-01T07:54:48.087Z,4.30
2018-12-01T07:57:52.249Z,4.40
2018-12-01T08:00:56.447Z,4.40
2018-12-01T08:04:00.590Z,4.50
2018-12-01T08:07:04.996Z,4.50
2018-12-01T08:10:13.048Z,4.60
2018-12-01T08:13:17.201Z,4.70
2018-12-01T08:16:21.421Z,4.90
2018-12-01T08:19:25.560Z,5.00
2018-12-01T08:22:29.706Z,5.00
2018-12-01T08:25:33.848Z,5.10
2018-12-01T08:28:38.086Z,5.10
2018-12-01T08:31:42.217Z,5.20
2018-12-01T08:34:46.431Z,5.30
2018-12-01T08:37:50.568Z,5.30
2018-12-01T08:40:54.730Z,5.30
2018-12-01T08:43:58.936Z,5.30
2018-12-01T08:47:03.085Z,5.30
2018-12-01T08:50:11.470Z,5.40
2018-12-01T08:53:15.712Z,5.40
2018-12-01T08:56:19.954Z,5.50
2018-12-01T08:59:24.080Z,5.60
2018-12-01T09:02:28.242Z,5.70
2018-12-01T09:05:32.397Z,5.80
2018-12-01T09:08:36.545Z,5.90
2018-12-01T09:11:40.738Z,6.10
2018-12-01T09:14:44.894Z,6.20
2018-12-01T09:17:49.073Z,6.30
2018-12-01T09:20:53.217Z,6.50
2018-12-01T09:23:57.365Z,6.60
2018-12-01T09:27:01.525Z,6.90
2018-12-01T09:30:10.760Z,7.30
2018-12-01T09:33:14.887Z,7.80
2018-12-01T09:36:19.074Z,8.30
2018-12-01T09:39:23.198Z,8.90
2018-12-01T09:42:27.316Z,9.20
2018-12-01T09:45:31.476Z,9.30
2018-12-01T09:48:35.682Z,9.20
2018-12-01T09:51:39.802Z,9.20
2018-12-01T09:54:43.999Z,9.20
2018-12-01T09:57:48.397Z,9.10
2018-12-01T10:00:52.514Z,9.10
2018-12-01T10:03:56.644Z,9.10
2018-12-01T10:07:00.762Z,9.00
2018-12-01T10:10:07.829Z,9.10
2018-12-01T10:13:11.972Z,9.20
2018-12-01T10:16:16.112Z,9.20
2018-12-01T10:19:20.248Z,9.40
2018-12-01T10:22:24.396Z,9.50
2018-12-01T10:25:28.541Z,9.70
2018-12-01T10:28:32.711Z,10.00
2018-12-01T10:31:36.876Z,10.60
2018-12-01T10:34:41.033Z,10.80
2018-12-01T10:37:49.391Z,10.80
2018-12-01T10:40:53.541Z,10.90
2018-12-01T10:43:57.744Z,11.00
2018-12-01T10:47:01.915Z,11.40
2018-12-01T10:50:09.428Z,11.70
2018-12-01T10:53:13.579Z,11.90
2018-12-01T10:56:17.728Z,11.90
2018-12-01T10:59:21.890Z,11.80
2018-12-01T11:02:31.209Z,12.40
2018-12-01T11:05:36.793Z,13.40
2018-12-01T11:08:40.944Z,14.00
2018-12-01T11:11:45.101Z,14.40
2018-12-01T11:14:49.252Z,14.70
2018-12-01T11:17:53.468Z,14.60
2018-12-01T11:20:57.616Z,14.70
2018-12-01T11:24:01.765Z,15.20
2018-12-01T11:27:06.227Z,15.50
2018-12-01T11:30:15.352Z,16.20
2018-12-01T11:33:19.468Z,16.50
2018-12-01T11:36:23.797Z,16.00
2018-12-01T11:39:27.925Z,15.30
2018-12-01T11:42:32.132Z,14.90
2018-12-01T11:45:36.273Z,14.60
2018-12-01T11:48:40.393Z,14.40
2018-12-01T11:51:44.521Z,14.40
2018-12-01T11:54:48.699Z,14.40
2018-12-01T11:57:53.891Z,14.90
2018-12-01T12:00:58.035Z,15.70
2018-12-01T12:04:02.271Z,16.60
2018-12-01T12:07:16.317Z,17.30
2018-12-01T12:10:20.457Z,18.00
2018-12-01T12:13:26.461Z,18.80
2018-12-01T12:16:30.622Z,19.20
2018-12-01T12:19:34.844Z,17.70
2018-12-01T12:22:38.974Z,17.20
2018-12-01T12:25:43.096Z,17.10
2018-12-01T12:28:48.317Z,17.10
2018-12-01T12:31:52.466Z,17.50
2018-12-01T12:34:56.652Z,17.60
2018-12-01T12:38:00.804Z,18.20
2018-12-01T12:41:06.105Z,18.20
2018-12-01T12:44:10.331Z,17.80
2018-12-01T12:47:14.491Z,17.20
2018-12-01T12:50:19.705Z,16.50
2018-12-01T12:53:23.855Z,15.80
2018-12-01T12:56:28.024Z,15.50
2018-12-01T12:59:32.168Z,14.90
2018-12-01T13:02:36.336Z,14.60
2018-12-01T13:05:43.162Z,14.10
2018-12-01T13:08:47.381Z,13.50
2018-12-01T13:11:51.599Z,12.80
2018-12-01T13:14:55.781Z,12.50
2018-12-01T13:17:59.923Z,12.50
2018-12-01T13:21:04.122Z,12.40
2018-12-01T13:24:08.275Z,12.40
2018-12-01T13:27:12.457Z,12.20
2018-12-01T13:30:19.735Z,11.90
2018-12-01T13:33:25.144Z,11.50
2018-12-01T13:36:29.342Z,11.30
2018-12-01T13:39:33.940Z,11.20
2018-12-01T13:42:38.145Z,11.20
2018-12-01T13:45:42.697Z,11.40
2018-12-01T13:48:46.893Z,11.70
2018-12-01T13:51:51.071Z,12.10
2018-12-01T13:54:55.332Z,12.10
2018-12-01T13:57:59.548Z,11.90
2018-12-01T14:01:03.793Z,11.70
2018-12-01T14:04:07.997Z,11.40
2018-12-01T14:07:12.314Z,11.20
2018-12-01T14:10:21.146Z,11.10
2018-12-01T14:13:25.335Z,11.10
2018-12-01T14:16:29.544Z,11.00
2018-12-01T14:19:33.758Z,10.90
2018-12-01T14:22:37.984Z,10.90
2018-12-01T14:25:42.148Z,10.90
2018-12-01T14:28:46.308Z,10.90
2018-12-01T14:31:50.452Z,10.80
2018-12-01T14:34:54.608Z,10.70
2018-12-01T14:38:05.708Z,10.60
2018-12-01T14:41:09.892Z,10.60
2018-12-01T14:44:14.025Z,10.50
2018-12-01T14:47:18.197Z,10.50
2018-12-01T14:50:22.353Z,10.50
2018-12-01T14:53:26.516Z,10.50
2018-12-01T14:56:30.661Z,10.40
2018-12-01T14:59:34.789Z,10.40
2018-12-01T15:02:38.953Z,10.40
2018-12-01T15:05:43.132Z,10.30
2018-12-01T15:08:47.302Z,10.30
2018-12-01T15:11:51.444Z,10.30
2018-12-01T15:14:55.571Z,10.30
2018-12-01T15:17:59.700Z,10.30
2018-12-01T15:21:03.916Z,10.30
2018-12-01T15:24:08.049Z,10.20
2018-12-01T15:27:12.193Z,10.20
2018-12-01T15:30:19.822Z,10.10
2018-12-01T15:33:24.001Z,10.10
2018-12-01T15:36:28.156Z,10.00
2018-12-01T15:39:32.313Z,10.00
2018-12-01T15:42:36.476Z,9.90
2018-12-01T15:45:40.637Z,9.90
2018-12-01T15:48:44.789Z,9.80
2018-12-01T15:51:49.653Z,9.80
2018-12-01T15:54:53.884Z,9.80
2018-12-01T15:57:58.032Z,9.90
2018-12-01T16:01:02.175Z,9.90
2018-12-01T16:04:07.016Z,9.90
2018-12-01T16:07:11.183Z,9.90
2018-12-01T16:10:17.037Z,9.90
2018-12-01T16:13:23.222Z,9.90
2018-12-01T16:16:27.479Z,9.90
2018-12-01T16:19:31.605Z,9.80
2018-12-01T16:22:35.753Z,9.80
2018-12-01T16:25:40.009Z,9.80
2018-12-01T16:28:44.171Z,9.70
2018-12-01T16:31:48.318Z,9.60
2018-12-01T16:34:52.542Z,9.60
2018-12-01T16:37:56.753Z,9.50
2018-12-01T16:41:12.957Z,9.50
2018-12-01T16:44:17.112Z,9.50
2018-12-01T16:47:22.023Z,9.40
2018-12-01T16:50:26.226Z,9.30
2018-12-01T16:53:30.380Z,9.30
2018-12-01T16:56:34.528Z,9.20
2018-12-01T16:59:39.862Z,9.20
2018-12-01T17:02:45.521Z,9.10
2018-12-01T17:05:53.344Z,9.10
2018-12-01T17:08:57.885Z,9.00
2018-12-01T17:12:02.029Z,9.00
2018-12-01T17:15:18.996Z,8.90
2018-12-01T17:18:23.125Z,8.90
2018-12-01T17:21:27.268Z,8.90
2018-12-01T17:24:31.473Z,8.90
2018-12-01T17:27:35.673Z,8.90
2018-12-01T17:30:39.912Z,8.80
2018-12-01T17:33:44.053Z,8.90
2018-12-01T17:36:48.209Z,8.90
2018-12-01T17:39:52.403Z,8.90
2018-12-01T17:42:58.135Z,8.80
2018-12-01T17:46:02.422Z,8.80
2018-12-01T17:49:07.684Z,8.80
2018-12-01T17:52:11.854Z,8.80
2018-12-01T17:55:16.852Z,8.80
2018-12-01T17:58:21.057Z,8.70
2018-12-01T18:01:25.253Z,8.70
2018-12-01T18:04:29.442Z,8.70
2018-12-01T18:07:33.600Z,8.70
2018-12-01T18:10:37.930Z,8.70
2018-12-01T18:13:42.103Z,8.70
2018-12-01T18:16:46.285Z,8.60
2018-12-01T18:19:50.548Z,8.60
2018-12-01T18:22:59.225Z,8.60
2018-12-01T18:26:03.531Z,8.50
2018-12-01T18:29:07.762Z,8.50
2018-12-01T18:32:12.000Z,8.40
2018-12-01T18:35:16.260Z,8.50
2018-12-01T18:38:20.462Z,8.50
2018-12-01T18:41:24.699Z,8.50
2018-12-01T18:44:28.885Z,8.50
2018-12-01T18:47:33.063Z,8.50
2018-12-01T18:50:37.373Z,8.50
2018-12-01T18:53:41.562Z,8.50
2018-12-01T18:56:45.995Z,8.40
2018-12-01T18:59:50.141Z,8.40
2018-12-01T19:02:54.357Z,8.40
2018-12-01T19:05:58.572Z,8.40
2018-12-01T19:09:02.794Z,8.50
2018-12-01T19:12:07.101Z,8.50
2018-12-01T19:15:16.627Z,8.50
2018-12-01T19:18:20.779Z,8.40
2018-12-01T19:21:24.885Z,8.50
2018-12-01T19:24:29.014Z,8.50
2018-12-01T19:27:33.134Z,8.50
2018-12-01T19:30:37.373Z,8.50
2018-12-01T19:33:41.507Z,8.50
2018-12-01T19:36:45.673Z,8.50
2018-12-01T19:39:49.904Z,8.50
2018-12-01T19:42:54.085Z,8.50
2018-12-01T19:45:58.325Z,8.60
2018-12-01T19:49:02.554Z,8.60
2018-12-01T19:52:06.989Z,8.60
2018-12-01T19:55:13.408Z,8.50
2018-12-01T19:58:19.881Z,8.50
2018-12-01T20:01:24.097Z,8.40
2018-12-01T20:04:28.357Z,8.40
2018-12-01T20:07:32.574Z,8.40
2018-12-01T20:10:44.364Z,8.40
2018-12-01T20:13:48.861Z,8.40
2018-12-01T20:16:56.291Z,8.40
2018-12-01T20:20:01.181Z,8.30
2018-12-01T20:23:05.651Z,8.30
2018-12-01T20:26:09.785Z,8.30
2018-12-01T20:29:14.174Z,8.40
2018-12-01T20:32:18.409Z,8.40
2018-12-01T20:35:43.312Z,8.40
2018-12-01T20:39:50.978Z,8.40
2018-12-01T20:42:55.161Z,8.40
2018-12-01T20:45:59.334Z,8.30
2018-12-01T20:49:03.486Z,8.20
2018-12-01T20:52:07.696Z,8.30
2018-12-01T20:55:17.335Z,8.30
2018-12-01T20:58:21.947Z,8.30
2018-12-01T21:01:26.104Z,8.30
2018-12-01T21:04:30.303Z,8.30
2018-12-01T21:07:34.460Z,8.40
2018-12-01T21:10:42.706Z,8.40
2018-12-01T21:13:46.950Z,8.30
2018-12-01T21:16:51.150Z,8.40
2018-12-01T21:19:55.334Z,8.40
2018-12-01T21:22:59.517Z,8.50
2018-12-01T21:26:03.707Z,8.50
2018-12-01T21:29:08.243Z,8.50
2018-12-01T21:32:12.466Z,8.60
2018-12-01T21:35:16.656Z,8.50
2018-12-01T21:38:21.005Z,8.60
2018-12-01T21:41:25.212Z,8.60
2018-12-01T21:44:29.388Z,8.60
2018-12-01T21:47:33.660Z,8.60
2018-12-01T21:50:38.157Z,8.60
2018-12-01T21:53:42.336Z,8.60
2018-12-01T21:56:46.550Z,8.60
2018-12-01T21:59:50.779Z,8.60
2018-12-01T22:03:00.061Z,8.60
2018-12-01T22:06:06.155Z,8.60
2018-12-01T22:09:10.636Z,8.60
2018-12-01T22:12:14.954Z,8.60
2018-12-01T22:15:20.724Z,8.60
2018-12-01T22:18:25.902Z,8.60
2018-12-01T22:21:30.208Z,8.70
2018-12-01T22:24:34.397Z,8.70
2018-12-01T22:27:38.749Z,8.70
2018-12-01T22:30:45.383Z,8.70
2018-12-01T22:33:49.641Z,8.70
2018-12-01T22:36:53.915Z,8.70
2018-12-01T22:39:58.119Z,8.70
2018-12-01T22:43:04.324Z,8.70
2018-12-01T22:46:08.577Z,8.80
2018-12-01T22:49:12.809Z,8.70
2018-12-01T22:52:18.669Z,8.80
2018-12-01T22:55:25.854Z,8.80
2018-12-01T22:58:31.789Z,8.80
2018-12-01T23:01:36.327Z,8.80
2018-12-01T23:04:40.704Z,8.80
2018-12-01T23:07:45.093Z,8.80
2018-12-01T23:10:49.521Z,8.80
2018-12-01T23:13:53.792Z,8.80
2018-12-01T23:16:58.371Z,8.70
2018-12-01T23:20:02.866Z,8.60
2018-12-01T23:23:07.690Z,8.60
2018-12-01T23:26:11.951Z,8.60
2018-12-01T23:29:17.061Z,8.60
2018-12-01T23:32:21.336Z,8.60
2018-12-01T23:35:25.910Z,8.50
2018-12-01T23:38:30.322Z,8.50
2018-12-01T23:41:34.691Z,8.50
2018-12-01T23:44:39.067Z,8.60
2018-12-01T23:47:43.806Z,8.60
2018-12-01T23:50:52.863Z,8.60
2018-12-01T23:53:57.257Z,8.60
2018-12-01T23:57:01.505Z,8.60
